createdAt,value
2024-02-29T00:01:32.958Z,5.00
2024-02-29T00:04:01.401Z,3.90
2024-02-29T00:06:30.053Z,4.50
2024-02-29T00:08:58.441Z,4.10
2024-02-29T00:11:26.783Z,4.63
2024-02-29T00:13:56.555Z,4.40
2024-02-29T00:16:24.852Z,3.93
2024-02-29T00:18:53.238Z,4.30
2024-02-29T00:21:21.662Z,4.40
2024-02-29T00:23:50.131Z,5.17
2024-02-29T00:26:18.426Z,4.00
2024-02-29T00:28:46.921Z,5.30
2024-02-29T00:31:16.923Z,4.03
2024-02-29T00:33:45.273Z,4.70
2024-02-29T00:36:13.602Z,5.80
2024-02-29T00:38:42.088Z,5.17
2024-02-29T00:41:10.538Z,5.77
2024-02-29T00:43:40.838Z,4.93
2024-02-29T00:46:09.201Z,5.30
2024-02-29T00:48:39.766Z,4.57
2024-02-29T00:51:08.143Z,4.77
2024-02-29T00:53:36.401Z,5.63
2024-02-29T00:56:05.263Z,5.23
2024-02-29T00:58:33.679Z,5.47
2024-02-29T01:01:02.439Z,6.27
2024-02-29T01:03:32.729Z,5.87
2024-02-29T01:06:10.405Z,5.77
2024-02-29T01:08:39.561Z,5.73
2024-02-29T01:11:07.839Z,5.43
2024-02-29T01:13:36.482Z,5.97
2024-02-29T01:16:06.978Z,5.60
2024-02-29T01:18:36.368Z,6.60
2024-02-29T01:21:07.815Z,5.90
2024-02-29T01:23:36.455Z,6.97
2024-02-29T01:26:05.438Z,6.00
2024-02-29T01:28:33.806Z,6.33
2024-02-29T01:31:02.327Z,5.77
2024-02-29T01:33:31.151Z,7.63
2024-02-29T01:36:01.901Z,7.07
2024-02-29T01:38:31.646Z,6.10
2024-02-29T01:40:59.953Z,5.40
2024-02-29T01:43:30.482Z,6.33
2024-02-29T01:46:10.335Z,5.80
2024-02-29T01:48:38.834Z,5.97
2024-02-29T01:51:08.496Z,6.40
2024-02-29T01:53:38.204Z,5.60
2024-02-29T01:56:06.951Z,5.60
2024-02-29T01:58:35.816Z,7.63
2024-02-29T02:01:04.747Z,7.87
2024-02-29T02:03:33.336Z,6.07
2024-02-29T02:06:01.745Z,7.00
2024-02-29T02:08:32.642Z,6.10
2024-02-29T02:11:05.316Z,7.57
2024-02-29T02:13:34.719Z,7.17
2024-02-29T02:16:03.329Z,6.73
2024-02-29T02:18:33.140Z,7.23
2024-02-29T02:21:02.898Z,6.97
2024-02-29T02:23:31.358Z,7.03
2024-02-29T02:26:01.222Z,7.00
2024-02-29T02:28:30.533Z,7.03
2024-02-29T02:30:58.900Z,6.37
2024-02-29T02:33:27.318Z,7.40
2024-02-29T02:36:03.092Z,6.40
2024-02-29T02:38:31.600Z,6.80
2024-02-29T02:40:59.866Z,6.80
2024-02-29T02:43:28.198Z,7.30
2024-02-29T02:45:56.629Z,6.70
2024-02-29T02:48:25.031Z,6.73
2024-02-29T02:50:54.820Z,6.27
2024-02-29T02:53:24.662Z,5.57
2024-02-29T02:55:52.955Z,6.30
2024-02-29T02:58:21.307Z,5.70
2024-02-29T03:00:49.752Z,5.53
2024-02-29T03:03:18.142Z,5.60
2024-02-29T03:05:46.504Z,5.87
2024-02-29T03:08:15.191Z,5.40
2024-02-29T03:10:45.021Z,6.60
2024-02-29T03:13:13.376Z,6.50
2024-02-29T03:15:42.101Z,5.67
2024-02-29T03:18:10.691Z,6.60
2024-02-29T03:20:39.121Z,5.87
2024-02-29T03:23:08.400Z,6.77
2024-02-29T03:25:36.884Z,5.93
2024-02-29T03:28:06.821Z,5.57
2024-02-29T03:30:39.753Z,6.37
2024-02-29T03:33:08.347Z,6.73
2024-02-29T03:35:37.996Z,6.30
2024-02-29T03:38:06.849Z,5.57
2024-02-29T03:40:35.200Z,6.17
2024-02-29T03:43:03.540Z,6.27
2024-02-29T03:45:33.270Z,7.47
2024-02-29T03:48:01.796Z,5.50
2024-02-29T03:50:30.431Z,5.93
2024-02-29T03:52:58.880Z,6.93
2024-02-29T03:55:27.253Z,6.73
2024-02-29T03:57:55.554Z,6.70
2024-02-29T04:00:24.239Z,7.53
2024-02-29T04:02:54.193Z,7.33
2024-02-29T04:05:25.597Z,7.10
2024-02-29T04:07:58.075Z,6.47
2024-02-29T04:10:28.489Z,6.97
2024-02-29T04:12:57.172Z,7.23
2024-02-29T04:15:25.521Z,8.40
2024-02-29T04:17:55.409Z,8.10
2024-02-29T04:20:23.789Z,8.40
2024-02-29T04:22:52.081Z,8.23
2024-02-29T04:25:24.196Z,9.00
2024-02-29T04:27:52.678Z,8.00
2024-02-29T04:30:21.098Z,7.60
2024-02-29T04:32:49.436Z,9.73
2024-02-29T04:35:19.614Z,7.97
2024-02-29T04:37:48.511Z,8.17
2024-02-29T04:40:16.894Z,8.93
2024-02-29T04:42:45.280Z,9.33
2024-02-29T04:45:13.722Z,9.13
2024-02-29T04:47:42.068Z,8.77
2024-02-29T04:50:10.924Z,7.70
2024-02-29T04:52:40.635Z,8.03
2024-02-29T04:55:09.903Z,8.50
2024-02-29T04:57:38.386Z,8.50
2024-02-29T05:00:08.255Z,7.60
2024-02-29T05:02:36.872Z,7.33
2024-02-29T05:05:07.607Z,8.53
2024-02-29T05:07:36.033Z,7.03
2024-02-29T05:10:08.819Z,8.07
2024-02-29T05:12:37.421Z,7.63
2024-02-29T05:15:06.923Z,8.00
2024-02-29T05:17:35.461Z,7.63
2024-02-29T05:20:04.064Z,7.30
2024-02-29T05:22:32.395Z,6.83
2024-02-29T05:25:00.923Z,7.10
2024-02-29T05:27:31.444Z,6.10
2024-02-29T05:29:59.969Z,6.20
2024-02-29T05:32:31.360Z,6.90
2024-02-29T05:34:59.648Z,5.70
2024-02-29T05:37:31.154Z,6.80
2024-02-29T05:40:00.878Z,6.17
2024-02-29T05:42:30.571Z,7.93
2024-02-29T05:45:00.036Z,7.13
2024-02-29T05:47:28.478Z,6.93
2024-02-29T05:49:57.315Z,7.20
2024-02-29T05:52:25.729Z,6.97
2024-02-29T05:54:54.280Z,7.17
2024-02-29T05:57:25.189Z,8.10
2024-02-29T05:59:55.913Z,7.90
2024-02-29T06:02:25.306Z,8.10
2024-02-29T06:04:53.574Z,9.27
2024-02-29T06:07:21.843Z,8.70
2024-02-29T06:09:50.201Z,8.77
2024-02-29T06:12:18.876Z,7.90
2024-02-29T06:14:48.657Z,8.90
2024-02-29T06:17:18.465Z,9.20
2024-02-29T06:19:46.783Z,8.80
2024-02-29T06:22:15.829Z,8.90
2024-02-29T06:24:44.281Z,8.23
2024-02-29T06:27:12.551Z,9.87
2024-02-29T06:29:40.790Z,10.20
2024-02-29T06:32:10.287Z,9.03
2024-02-29T06:34:39.958Z,9.20
2024-02-29T06:37:08.527Z,8.80
2024-02-29T06:39:37.987Z,8.87
2024-02-29T06:42:06.862Z,9.47
2024-02-29T06:44:35.156Z,9.17
2024-02-29T06:47:03.544Z,8.80
2024-02-29T06:49:31.891Z,9.00
2024-02-29T06:52:01.564Z,8.17
2024-02-29T06:54:29.841Z,8.90
2024-02-29T06:56:58.419Z,8.40
2024-02-29T06:59:26.714Z,8.77
2024-02-29T07:01:55.321Z,8.77
2024-02-29T07:04:23.699Z,7.93
2024-02-29T07:06:52.205Z,7.80
2024-02-29T07:09:21.989Z,8.40
2024-02-29T07:11:51.415Z,6.60
2024-02-29T07:14:20.055Z,8.50
2024-02-29T07:16:49.388Z,7.93
2024-02-29T07:19:20.064Z,7.40
2024-02-29T07:21:48.563Z,8.33
2024-02-29T07:24:16.894Z,7.40
2024-02-29T07:26:46.853Z,9.23
2024-02-29T07:29:15.398Z,6.73
2024-02-29T07:31:44.789Z,6.83
2024-02-29T07:34:17.225Z,6.70
2024-02-29T07:36:45.843Z,5.70
2024-02-29T07:39:14.371Z,5.60
2024-02-29T07:41:42.887Z,6.83
2024-02-29T07:44:12.660Z,5.90
2024-02-29T07:46:40.999Z,7.13
2024-02-29T07:49:11.066Z,6.80
2024-02-29T07:51:39.436Z,6.70
2024-02-29T07:54:08.051Z,6.63
2024-02-29T07:56:36.361Z,6.73
2024-02-29T07:59:04.999Z,7.53
2024-02-29T08:01:35.019Z,7.87
2024-02-29T08:04:03.437Z,6.20
2024-02-29T08:06:32.090Z,6.27
2024-02-29T08:09:00.391Z,6.23
2024-02-29T08:11:28.754Z,6.03
2024-02-29T08:13:57.181Z,5.77
2024-02-29T08:16:25.619Z,7.27
2024-02-29T08:18:55.398Z,7.50
2024-02-29T08:21:24.261Z,6.60
2024-02-29T08:23:52.770Z,6.37
2024-02-29T08:26:21.199Z,7.30
2024-02-29T08:28:50.977Z,6.57
2024-02-29T08:31:19.671Z,6.30
2024-02-29T08:33:48.161Z,6.33
2024-02-29T08:36:17.903Z,5.70
2024-02-29T08:38:46.247Z,7.03
2024-02-29T08:41:14.708Z,6.07
2024-02-29T08:43:44.942Z,6.80
2024-02-29T08:46:14.022Z,7.43
2024-02-29T08:48:43.110Z,6.43
2024-02-29T08:51:11.439Z,6.93
2024-02-29T08:53:41.400Z,6.60
2024-02-29T08:56:09.678Z,6.87
2024-02-29T08:58:38.132Z,7.23
2024-02-29T09:01:06.775Z,7.47
2024-02-29T09:03:35.159Z,7.37
2024-02-29T09:06:03.538Z,7.13
2024-02-29T09:08:31.817Z,7.60
2024-02-29T09:11:01.559Z,6.30
2024-02-29T09:13:34.955Z,7.43
2024-02-29T09:16:05.120Z,7.00
2024-02-29T09:18:33.558Z,8.60
2024-02-29T09:21:01.880Z,7.87
2024-02-29T09:23:30.377Z,6.03
2024-02-29T09:25:59.050Z,7.50
2024-02-29T09:28:28.728Z,6.93
2024-02-29T09:30:57.134Z,7.13
2024-02-29T09:33:26.423Z,8.03
2024-02-29T09:35:58.697Z,6.70
2024-02-29T09:38:28.454Z,6.60
2024-02-29T09:41:03.193Z,6.90
2024-02-29T09:43:45.338Z,6.17
2024-02-29T09:46:13.840Z,6.10
2024-02-29T09:48:42.761Z,5.27
2024-02-29T09:51:16.474Z,5.43
2024-02-29T09:53:45.246Z,5.23
2024-02-29T09:56:15.897Z,5.90
2024-02-29T09:58:46.135Z,6.77
2024-02-29T10:01:14.648Z,5.57
2024-02-29T10:03:44.217Z,5.20
2024-02-29T10:06:13.288Z,6.30
2024-02-29T10:08:41.595Z,4.43
2024-02-29T10:11:10.227Z,6.70
2024-02-29T10:13:39.930Z,5.37
2024-02-29T10:16:11.473Z,5.90
2024-02-29T10:18:40.881Z,6.27
2024-02-29T10:21:12.582Z,6.93
2024-02-29T10:23:41.718Z,8.10
2024-02-29T10:26:10.399Z,5.47
2024-02-29T10:28:38.885Z,6.33
2024-02-29T10:31:07.871Z,5.17
2024-02-29T10:33:39.963Z,6.27
2024-02-29T10:36:13.317Z,6.40
2024-02-29T10:38:41.680Z,4.73
2024-02-29T10:41:11.697Z,6.53
2024-02-29T10:43:40.364Z,5.53
2024-02-29T10:46:09.874Z,5.07
2024-02-29T10:48:44.474Z,5.63
2024-02-29T10:51:19.496Z,5.73
2024-02-29T10:53:50.711Z,4.53
2024-02-29T10:56:23.869Z,5.10
2024-02-29T10:58:55.685Z,6.00
2024-02-29T11:01:24.391Z,6.83
2024-02-29T11:03:54.430Z,5.27
2024-02-29T11:06:23.271Z,5.37
2024-02-29T11:08:52.301Z,6.23
2024-02-29T11:11:23.354Z,6.10
2024-02-29T11:13:51.655Z,4.50
2024-02-29T11:16:21.842Z,5.27
2024-02-29T11:18:50.305Z,4.53
2024-02-29T11:21:30.604Z,5.70
2024-02-29T11:24:04.054Z,5.30
2024-02-29T11:26:33.806Z,5.80
2024-02-29T11:29:02.892Z,5.80
2024-02-29T11:31:31.141Z,5.07
2024-02-29T11:34:00.826Z,5.47
2024-02-29T11:36:33.466Z,5.13
2024-02-29T11:39:01.772Z,5.00
2024-02-29T11:41:30.355Z,5.40
2024-02-29T11:43:58.629Z,5.80
2024-02-29T11:46:27.125Z,5.73
2024-02-29T11:48:57.587Z,5.97
2024-02-29T11:51:26.785Z,5.80
2024-02-29T11:53:56.811Z,5.57
2024-02-29T11:56:25.601Z,5.20
2024-02-29T11:58:55.023Z,4.90
2024-02-29T12:01:24.781Z,5.80
2024-02-29T12:03:53.642Z,6.03
2024-02-29T12:06:22.160Z,5.40
2024-02-29T12:08:51.133Z,5.40
2024-02-29T12:11:36.882Z,5.00
2024-02-29T12:14:08.119Z,5.27
2024-02-29T12:16:37.623Z,5.03
2024-02-29T12:19:07.103Z,5.80
2024-02-29T12:21:36.364Z,5.00
2024-02-29T12:24:05.122Z,5.00
2024-02-29T12:26:35.873Z,5.30
2024-02-29T12:29:07.913Z,4.90
2024-02-29T12:31:36.352Z,4.90
2024-02-29T12:34:06.573Z,5.03
2024-02-29T12:36:35.117Z,4.53
2024-02-29T12:39:04.144Z,5.43
2024-02-29T12:41:32.954Z,5.73
2024-02-29T12:44:05.875Z,6.27
2024-02-29T12:46:34.295Z,5.30
2024-02-29T12:49:04.758Z,5.83
2024-02-29T12:51:33.348Z,4.40
2024-02-29T12:54:01.689Z,6.53
2024-02-29T12:56:30.796Z,4.60
2024-02-29T12:58:59.197Z,6.40
2024-02-29T13:01:30.147Z,5.40
2024-02-29T13:03:59.009Z,5.67
2024-02-29T13:06:27.326Z,4.13
2024-02-29T13:08:55.647Z,4.90
2024-02-29T13:11:24.985Z,4.40
2024-02-29T13:13:53.405Z,4.40
2024-02-29T13:16:21.882Z,5.03
2024-02-29T13:18:51.883Z,5.30
2024-02-29T13:21:20.295Z,4.87
2024-02-29T13:23:48.716Z,4.47
2024-02-29T13:26:17.218Z,5.20
2024-02-29T13:28:46.630Z,4.90
2024-02-29T13:31:15.300Z,4.30
2024-02-29T13:33:44.028Z,4.90
2024-02-29T13:36:13.872Z,5.03
2024-02-29T13:38:42.610Z,4.40
2024-02-29T13:41:11.505Z,6.20
2024-02-29T13:43:40.995Z,4.60
2024-02-29T13:46:09.447Z,4.53
2024-02-29T13:48:38.937Z,4.67
2024-02-29T13:51:07.690Z,4.73
2024-02-29T13:53:37.433Z,4.47
2024-02-29T13:56:05.957Z,4.80
2024-02-29T13:58:34.342Z,4.20
2024-02-29T14:01:02.749Z,4.17
2024-02-29T14:03:31.103Z,3.40
2024-02-29T14:05:59.792Z,4.60
2024-02-29T14:08:29.280Z,3.90
2024-02-29T14:10:58.981Z,4.43
2024-02-29T14:13:27.433Z,4.90
2024-02-29T14:15:55.780Z,4.73
2024-02-29T14:18:24.546Z,4.73
2024-02-29T14:20:52.877Z,4.03
2024-02-29T14:23:21.429Z,4.67
2024-02-29T14:25:49.710Z,4.47
2024-02-29T14:28:19.592Z,4.80
2024-02-29T14:30:50.082Z,5.10
2024-02-29T14:33:18.588Z,5.07
2024-02-29T14:35:48.125Z,5.30
2024-02-29T14:38:16.501Z,5.13
2024-02-29T14:40:44.818Z,5.00
2024-02-29T14:43:13.173Z,5.17
2024-02-29T14:45:43.316Z,6.37
2024-02-29T14:48:11.742Z,5.70
2024-02-29T14:50:41.627Z,4.23
2024-02-29T14:53:10.080Z,4.33
2024-02-29T14:55:38.549Z,3.83
2024-02-29T14:58:07.483Z,4.40
2024-02-29T15:00:35.813Z,5.17
2024-02-29T15:03:05.541Z,5.43
2024-02-29T15:05:33.819Z,4.80
2024-02-29T15:08:04.172Z,5.00
2024-02-29T15:10:32.836Z,4.63
2024-02-29T15:13:01.976Z,4.10
2024-02-29T15:15:30.415Z,5.20
2024-02-29T15:17:59.101Z,4.60
2024-02-29T15:20:28.918Z,4.63
2024-02-29T15:22:59.362Z,3.27
2024-02-29T15:25:29.491Z,4.37
2024-02-29T15:28:05.422Z,4.20
2024-02-29T15:30:33.986Z,3.50
2024-02-29T15:33:02.382Z,3.53
2024-02-29T15:35:32.114Z,3.83
2024-02-29T15:38:00.810Z,3.47
2024-02-29T15:40:29.467Z,3.57
2024-02-29T15:42:57.920Z,3.43
2024-02-29T15:45:26.304Z,3.57
2024-02-29T15:47:54.776Z,3.97
2024-02-29T15:50:24.219Z,4.10
2024-02-29T15:52:56.194Z,3.73
2024-02-29T15:55:25.598Z,4.07
2024-02-29T15:57:54.274Z,3.30
2024-02-29T16:00:24.715Z,2.90
2024-02-29T16:02:54.630Z,2.93
2024-02-29T16:05:22.999Z,3.73
2024-02-29T16:07:55.767Z,3.10
2024-02-29T16:10:24.321Z,2.87
2024-02-29T16:12:52.861Z,3.20
2024-02-29T16:15:22.251Z,2.50
2024-02-29T16:17:53.534Z,3.03
2024-02-29T16:20:23.135Z,3.00
2024-02-29T16:22:51.648Z,2.37
2024-02-29T16:25:22.153Z,3.37
2024-02-29T16:27:51.629Z,2.70
2024-02-29T16:30:20.467Z,2.17
2024-02-29T16:32:48.919Z,2.70
2024-02-29T16:35:17.281Z,3.40
2024-02-29T16:37:50.035Z,3.00
2024-02-29T16:40:18.511Z,3.00
2024-02-29T16:42:48.193Z,3.00
2024-02-29T16:45:16.483Z,2.63
2024-02-29T16:47:45.706Z,3.23
2024-02-29T16:50:14.061Z,3.60
2024-02-29T16:52:42.829Z,2.40
2024-02-29T16:55:11.325Z,2.90
2024-02-29T16:57:40.734Z,2.73
2024-02-29T17:00:12.525Z,3.33
2024-02-29T17:02:41.055Z,3.50
2024-02-29T17:05:09.566Z,3.13
2024-02-29T17:07:37.954Z,3.00
2024-02-29T17:10:06.601Z,2.83
2024-02-29T17:12:34.914Z,2.80
2024-02-29T17:15:03.328Z,2.87
2024-02-29T17:17:33.127Z,2.63
2024-02-29T17:20:01.485Z,2.80
2024-02-29T17:22:29.819Z,2.87
2024-02-29T17:24:58.219Z,2.73
2024-02-29T17:27:26.844Z,2.50
2024-02-29T17:29:55.843Z,3.80
2024-02-29T17:32:26.147Z,3.13
2024-02-29T17:34:55.853Z,2.50
2024-02-29T17:37:25.722Z,2.90
2024-02-29T17:39:57.889Z,2.93
2024-02-29T17:42:26.338Z,2.70
2024-02-29T17:44:54.668Z,2.30
2024-02-29T17:47:23.251Z,2.90
2024-02-29T17:49:52.472Z,3.00
2024-02-29T17:52:22.564Z,2.80
2024-02-29T17:54:51.727Z,2.73
2024-02-29T17:57:20.054Z,3.30
2024-02-29T17:59:48.344Z,2.40
2024-02-29T18:02:19.829Z,2.70
2024-02-29T18:04:50.592Z,2.40
2024-02-29T18:07:22.396Z,3.00
2024-02-29T18:09:50.854Z,3.50
2024-02-29T18:12:19.444Z,3.40
2024-02-29T18:14:47.824Z,3.87
2024-02-29T18:17:16.085Z,3.63
2024-02-29T18:19:44.534Z,3.53
2024-02-29T18:22:12.910Z,3.73
2024-02-29T18:24:42.589Z,3.90
2024-02-29T18:27:15.267Z,3.40
2024-02-29T18:29:45.585Z,3.10
2024-02-29T18:32:14.107Z,3.37
2024-02-29T18:34:43.730Z,3.90
2024-02-29T18:37:12.039Z,3.70
2024-02-29T18:39:40.450Z,4.03
2024-02-29T18:42:10.479Z,4.30
2024-02-29T18:44:38.749Z,3.50
2024-02-29T18:47:08.537Z,5.13
2024-02-29T18:49:36.949Z,4.07
2024-02-29T18:52:05.803Z,4.90
2024-02-29T18:54:34.409Z,4.67
2024-02-29T18:57:02.752Z,4.57
2024-02-29T18:59:33.494Z,3.83
2024-02-29T19:02:05.190Z,4.87
2024-02-29T19:04:34.077Z,4.13
2024-02-29T19:07:03.075Z,4.70
2024-02-29T19:09:32.526Z,4.47
2024-02-29T19:12:01.136Z,4.60
2024-02-29T19:14:30.772Z,5.17
2024-02-29T19:17:00.536Z,4.50
2024-02-29T19:19:30.044Z,4.77
2024-02-29T19:22:00.600Z,5.17
2024-02-29T19:24:28.981Z,5.37
2024-02-29T19:26:57.324Z,4.50
2024-02-29T19:29:25.659Z,5.13
2024-02-29T19:31:56.127Z,4.50
2024-02-29T19:34:26.393Z,5.40
2024-02-29T19:36:55.936Z,5.23
2024-02-29T19:39:24.419Z,5.50
2024-02-29T19:41:53.269Z,4.93
2024-02-29T19:44:21.487Z,5.90
2024-02-29T19:46:49.961Z,5.90
2024-02-29T19:49:19.249Z,5.73
2024-02-29T19:51:49.160Z,7.00
2024-02-29T19:54:17.521Z,5.40
2024-02-29T19:56:46.844Z,5.83
2024-02-29T19:59:15.204Z,5.40
2024-02-29T20:01:44.636Z,5.27
2024-02-29T20:04:14.311Z,4.97
2024-02-29T20:06:44.083Z,6.20
2024-02-29T20:09:13.709Z,6.10
2024-02-29T20:11:42.489Z,4.97
2024-02-29T20:14:10.769Z,6.20
2024-02-29T20:16:39.356Z,5.63
2024-02-29T20:19:08.770Z,5.20
2024-02-29T20:21:37.169Z,5.73
2024-02-29T20:24:05.748Z,5.60
2024-02-29T20:26:35.465Z,6.60
2024-02-29T20:29:03.902Z,6.20
2024-02-29T20:31:33.369Z,7.10
2024-02-29T20:34:01.728Z,7.03
2024-02-29T20:36:30.659Z,7.43
2024-02-29T20:39:00.024Z,7.27
2024-02-29T20:41:29.521Z,7.63
2024-02-29T20:43:59.188Z,7.17
2024-02-29T20:46:27.803Z,7.50
2024-02-29T20:48:56.331Z,8.10
2024-02-29T20:51:25.910Z,6.80
2024-02-29T20:53:54.222Z,6.10
2024-02-29T20:56:23.843Z,8.17
2024-02-29T20:58:52.232Z,8.50
2024-02-29T21:01:22.088Z,9.73
2024-02-29T21:03:52.445Z,9.00
2024-02-29T21:06:23.770Z,9.53
2024-02-29T21:08:52.367Z,8.57
2024-02-29T21:11:21.231Z,9.70
2024-02-29T21:13:49.629Z,9.60
2024-02-29T21:16:17.979Z,9.80
2024-02-29T21:18:47.733Z,11.17
2024-02-29T21:21:18.942Z,10.93
2024-02-29T21:23:49.184Z,10.57
2024-02-29T21:26:19.065Z,10.70
2024-02-29T21:28:49.635Z,9.20
2024-02-29T21:31:18.054Z,9.80
2024-02-29T21:33:47.799Z,9.27
2024-02-29T21:36:16.230Z,9.53
2024-02-29T21:38:45.999Z,9.70
2024-02-29T21:41:14.456Z,8.13
2024-02-29T21:43:43.220Z,11.63
2024-02-29T21:46:14.608Z,10.60
2024-02-29T21:48:43.058Z,9.73
2024-02-29T21:51:18.334Z,10.03
2024-02-29T21:53:46.741Z,11.50
2024-02-29T21:56:15.180Z,10.27
2024-02-29T21:58:44.155Z,10.20
2024-02-29T22:01:12.642Z,11.70
2024-02-29T22:03:44.025Z,8.67
2024-02-29T22:06:13.752Z,10.23
2024-02-29T22:08:42.087Z,9.13
2024-02-29T22:11:10.802Z,8.80
2024-02-29T22:13:39.120Z,10.03
2024-02-29T22:16:08.025Z,9.50
2024-02-29T22:18:36.393Z,9.17
2024-02-29T22:21:05.277Z,10.80
2024-02-29T22:23:41.752Z,10.10
2024-02-29T22:26:10.057Z,9.67
2024-02-29T22:28:39.536Z,9.10
2024-02-29T22:31:07.926Z,9.90
2024-02-29T22:33:36.196Z,9.30
2024-02-29T22:36:05.288Z,10.53
2024-02-29T22:38:33.609Z,8.90
2024-02-29T22:41:03.528Z,8.17
2024-02-29T22:43:31.922Z,8.50
2024-02-29T22:46:00.379Z,8.37
2024-02-29T22:48:28.674Z,9.20
2024-02-29T22:50:56.919Z,9.00
2024-02-29T22:53:26.285Z,9.60
2024-02-29T22:55:54.517Z,9.73
2024-02-29T22:58:24.444Z,7.93
2024-02-29T23:00:53.662Z,8.40
2024-02-29T23:03:23.188Z,8.73
2024-02-29T23:05:51.598Z,10.80
2024-02-29T23:08:20.949Z,9.40
2024-02-29T23:10:49.541Z,9.17
2024-02-29T23:13:20.604Z,9.80
2024-02-29T23:15:50.916Z,9.00
2024-02-29T23:18:19.186Z,9.60
2024-02-29T23:20:48.574Z,8.27
2024-02-29T23:23:16.903Z,8.90
2024-02-29T23:25:45.207Z,6.60
2024-02-29T23:28:13.590Z,6.47
2024-02-29T23:30:41.958Z,6.60
2024-02-29T23:33:11.697Z,7.10
2024-02-29T23:35:40.187Z,7.30
2024-02-29T23:38:08.638Z,7.30
2024-02-29T23:40:37.161Z,7.00
2024-02-29T23:43:05.686Z,6.63
2024-02-29T23:45:33.940Z,7.43
2024-02-29T23:48:03.758Z,7.93
2024-02-29T23:50:33.423Z,7.33
2024-02-29T23:53:01.703Z,7.93
2024-02-29T23:55:30.111Z,8.20
2024-02-29T23:57:58.538Z,7.53
